Time;durP1;ratioP1;P1;durP2;ratioP2;P2;SDS_P1;SDS_P2;PMS_P1;PMS_P2;Temp;Humidity;BMP_temperature;BMP_pressure;BME280_temperature;BME280_humidity;BME280_pressure;Samples;Min_cycle;Max_cycle;Signal;HPM_P1;HPM_P2
2021/05/03 00:02:07;;;;;;;0.93;0.60;;;6.40;99.90;;;;;;5057532;28;20267;-66
2021/05/03 00:04:34;;;;;;;0.73;0.65;;;6.40;99.90;;;;;;5056556;28;20226;-64
2021/05/03 00:07:01;;;;;;;0.50;0.50;;;6.40;99.90;;;;;;5053590;28;20208;-66
2021/05/03 00:09:27;;;;;;;0.30;0.30;;;6.50;99.90;;;;;;5051569;28;20281;-65
2021/05/03 00:11:54;;;;;;;1.23;1.13;;;6.40;99.90;;;;;;5056402;28;20277;-65
2021/05/03 00:14:21;;;;;;;0.40;0.40;;;6.40;99.90;;;;;;5056077;28;20211;-66
2021/05/03 00:16:47;;;;;;;0.52;0.52;;;6.50;99.90;;;;;;5057336;28;20374;-65
2021/05/03 00:19:14;;;;;;;0.70;0.70;;;6.40;99.90;;;;;;5056958;28;20242;-65
2021/05/03 00:21:41;;;;;;;1.13;0.98;;;6.40;99.90;;;;;;5061191;28;20210;-66
2021/05/03 00:24:08;;;;;;;1.52;0.40;;;6.50;99.90;;;;;;5056988;28;20207;-66
2021/05/03 00:26:34;;;;;;;1.95;0.70;;;6.50;99.90;;;;;;5053955;28;20204;-66
2021/05/03 00:29:01;;;;;;;1.30;1.20;;;6.60;99.90;;;;;;5055400;28;20218;-65
2021/05/03 00:31:28;;;;;;;0.35;0.35;;;6.60;99.90;;;;;;5055444;28;20494;-65
2021/05/03 00:33:54;;;;;;;0.35;0.35;;;6.70;99.90;;;;;;5055654;28;20214;-65
2021/05/03 00:36:21;;;;;;;0.30;0.30;;;6.70;99.90;;;;;;5057801;28;20203;-66
2021/05/03 00:38:47;;;;;;;0.60;0.60;;;6.70;99.90;;;;;;5058073;28;20231;-64
2021/05/03 00:41:14;;;;;;;0.50;0.50;;;6.80;99.90;;;;;;5056022;28;20223;-65
2021/05/03 00:43:41;;;;;;;1.20;0.70;;;6.80;99.90;;;;;;5057901;28;20203;-65
2021/05/03 00:46:07;;;;;;;0.40;0.40;;;6.80;99.90;;;;;;5044109;28;20215;-65
2021/05/03 00:48:34;;;;;;;0.30;0.30;;;6.80;99.90;;;;;;5066675;28;20415;-65
2021/05/03 00:51:01;;;;;;;1.67;1.58;;;6.80;99.90;;;;;;5065703;28;20215;-65
2021/05/03 00:53:28;;;;;;;1.17;1.10;;;6.80;99.90;;;;;;5057761;28;20243;-65
2021/05/03 00:55:55;;;;;;;0.30;0.30;;;6.80;99.90;;;;;;5047909;28;20282;-66
2021/05/03 00:58:22;;;;;;;0.40;0.40;;;6.80;99.90;;;;;;5067947;28;20234;-65
2021/05/03 01:00:49;;;;;;;0.95;0.73;;;6.80;99.90;;;;;;5066209;28;20863;-64
2021/05/03 01:03:16;;;;;;;0.70;0.70;;;6.80;99.90;;;;;;5067252;28;20207;-64
2021/05/03 01:05:42;;;;;;;0.75;0.75;;;6.80;99.90;;;;;;5072368;28;20418;-65
2021/05/03 01:08:09;;;;;;;1.38;0.85;;;6.80;99.90;;;;;;5070672;28;20233;-64
2021/05/03 01:10:35;;;;;;;0.40;0.40;;;6.80;99.90;;;;;;5072267;28;20207;-65
2021/05/03 01:13:02;;;;;;;0.98;0.65;;;6.90;99.90;;;;;;5069171;28;20211;-65
2021/05/03 01:15:29;;;;;;;1.77;0.75;;;6.90;99.90;;;;;;5064048;28;20614;-65
2021/05/03 01:17:57;;;;;;;0.57;0.57;;;7.00;99.90;;;;;;5067110;28;20253;-65
2021/05/03 01:20:26;;;;;;;0.77;0.77;;;6.90;99.90;;;;;;5058382;28;20215;-64
2021/05/03 01:22:56;;;;;;;0.95;0.88;;;6.90;99.90;;;;;;5058767;28;20211;-63
2021/05/03 01:25:27;;;;;;;1.20;1.15;;;6.90;99.90;;;;;;5060438;28;20195;-65
2021/05/03 01:27:55;;;;;;;1.00;0.82;;;6.80;99.90;;;;;;5052092;28;20204;-64
2021/05/03 01:30:32;;;;;;;0.60;0.60;;;6.90;99.90;;;;;;5059004;28;20389;-65
2021/05/03 01:32:58;;;;;;;0.50;0.50;;;6.80;99.90;;;;;;5048349;28;20210;-65
2021/05/03 01:35:26;;;;;;;0.30;0.30;;;6.80;99.90;;;;;;5051271;28;20215;-65
2021/05/03 01:37:55;;;;;;;3.53;1.40;;;6.70;99.90;;;;;;5058221;28;20289;-64
2021/05/03 01:40:24;;;;;;;0.80;0.80;;;6.60;99.90;;;;;;5051075;28;20216;-65
2021/05/03 01:42:52;;;;;;;0.50;0.50;;;6.60;99.90;;;;;;5056665;28;20531;-64
2021/05/03 01:45:23;;;;;;;0.30;0.30;;;7.00;99.90;;;;;;5059415;28;20200;-63
2021/05/03 01:47:50;;;;;;;0.40;0.40;;;6.70;99.90;;;;;;5062527;28;20235;-64
2021/05/03 01:50:19;;;;;;;0.57;0.57;;;6.80;99.90;;;;;;5055081;28;20199;-64
2021/05/03 01:52:46;;;;;;;0.88;0.40;;;6.70;99.90;;;;;;5059911;28;20266;-65
2021/05/03 01:55:13;;;;;;;0.30;0.30;;;6.80;99.90;;;;;;5067750;28;20207;-63
2021/05/03 01:57:41;;;;;;;0.50;0.50;;;6.80;99.90;;;;;;5049409;28;20235;-64
2021/05/03 02:00:09;;;;;;;0.55;0.55;;;6.80;99.90;;;;;;5057265;28;20210;-64
2021/05/03 02:02:36;;;;;;;0.55;0.55;;;6.80;99.90;;;;;;5050791;28;20517;-63
2021/05/03 02:05:04;;;;;;;0.65;0.65;;;6.80;99.90;;;;;;5067711;28;20274;-64
2021/05/03 02:07:30;;;;;;;0.50;0.50;;;6.80;99.90;;;;;;5068785;28;20211;-65
2021/05/03 02:09:57;;;;;;;0.60;0.60;;;6.80;99.90;;;;;;5059661;28;20409;-64
2021/05/03 02:12:24;;;;;;;1.05;0.95;;;6.90;99.90;;;;;;5061678;28;20204;-64
2021/05/03 02:14:50;;;;;;;0.60;0.60;;;6.90;99.90;;;;;;5065535;28;20213;-64
2021/05/03 02:17:17;;;;;;;1.67;1.58;;;6.90;99.90;;;;;;5050286;28;20601;-63
2021/05/03 02:19:44;;;;;;;2.15;0.82;;;6.80;99.90;;;;;;5052413;28;20208;-64
2021/05/03 02:22:11;;;;;;;0.98;0.85;;;6.80;99.90;;;;;;5066236;28;20230;-63
2021/05/03 02:24:37;;;;;;;1.35;0.70;;;6.80;99.90;;;;;;5050652;28;20215;-63
2021/05/03 02:27:04;;;;;;;0.50;0.50;;;6.80;99.90;;;;;;5058132;28;20208;-64
2021/05/03 02:29:31;;;;;;;0.65;0.65;;;6.80;99.90;;;;;;5058519;28;20211;-65
2021/05/03 02:31:58;;;;;;;0.40;0.40;;;6.80;99.90;;;;;;5048193;28;20224;-65
2021/05/03 02:34:25;;;;;;;0.47;0.47;;;6.80;99.90;;;;;;5071049;28;20279;-65
2021/05/03 02:36:55;;;;;;;0.30;0.30;;;6.70;99.90;;;;;;5058825;28;20206;-62
2021/05/03 02:39:22;;;;;;;1.80;1.70;;;6.60;99.90;;;;;;5062310;28;20228;-63
2021/05/03 02:41:48;;;;;;;0.30;0.30;;;6.50;99.90;;;;;;5059088;28;20214;-63
2021/05/03 02:44:15;;;;;;;0.93;0.93;;;6.50;99.90;;;;;;5057334;28;20225;-65
2021/05/03 02:46:42;;;;;;;0.75;0.75;;;6.40;99.90;;;;;;5058637;28;20515;-65
2021/05/03 02:49:08;;;;;;;0.95;0.90;;;6.50;99.90;;;;;;5058139;28;20405;-65
2021/05/03 02:51:37;;;;;;;0.75;0.75;;;6.60;99.90;;;;;;5059370;28;20207;-63
2021/05/03 02:54:05;;;;;;;0.75;0.75;;;6.70;99.90;;;;;;5057815;28;20254;-64
2021/05/03 02:56:32;;;;;;;0.77;0.77;;;6.60;99.90;;;;;;5057821;28;20207;-64
2021/05/03 02:58:58;;;;;;;0.60;0.60;;;6.60;99.90;;;;;;5058509;28;20250;-64
2021/05/03 03:01:25;;;;;;;0.40;0.40;;;6.70;99.90;;;;;;5060172;28;20204;-64
2021/05/03 03:03:51;;;;;;;1.50;0.85;;;6.70;99.90;;;;;;5058163;28;20239;-64
2021/05/03 03:06:18;;;;;;;1.35;0.98;;;6.70;99.90;;;;;;5050788;28;20203;-64
2021/05/03 03:08:44;;;;;;;0.40;0.40;;;6.60;99.90;;;;;;5055327;28;20216;-64
2021/05/03 03:11:11;;;;;;;0.52;0.52;;;6.70;99.90;;;;;;5053476;28;20207;-64
2021/05/03 03:13:37;;;;;;;0.30;0.30;;;6.70;99.90;;;;;;5066230;28;20203;-64
2021/05/03 03:16:04;;;;;;;0.45;0.45;;;6.80;99.90;;;;;;5044622;28;20231;-64
2021/05/03 03:18:32;;;;;;;0.40;0.40;;;6.70;99.90;;;;;;5050379;28;20234;-64
2021/05/03 03:20:59;;;;;;;1.00;1.00;;;6.70;99.90;;;;;;5044766;28;20227;-64
2021/05/03 03:23:26;;;;;;;2.40;2.15;;;6.70;99.90;;;;;;5052797;28;20207;-64
2021/05/03 03:25:52;;;;;;;0.57;0.57;;;6.60;99.90;;;;;;5050356;28;20215;-64
2021/05/03 03:28:19;;;;;;;0.68;0.50;;;6.70;99.90;;;;;;5060817;28;20234;-64
2021/05/03 03:30:45;;;;;;;0.30;0.30;;;6.70;99.90;;;;;;5060212;28;20214;-63
2021/05/03 03:33:12;;;;;;;0.50;0.50;;;6.70;99.90;;;;;;5052231;28;20211;-64
2021/05/03 03:35:38;;;;;;;0.40;0.40;;;6.70;99.90;;;;;;5054562;28;20230;-64
2021/05/03 03:38:05;;;;;;;0.30;0.30;;;6.60;99.90;;;;;;5059356;28;20231;-65
2021/05/03 03:40:32;;;;;;;0.30;0.30;;;6.60;99.90;;;;;;5058582;28;20208;-63
2021/05/03 03:42:58;;;;;;;0.70;0.70;;;6.60;99.90;;;;;;5057290;28;20207;-63
2021/05/03 03:45:25;;;;;;;0.30;0.30;;;6.70;99.90;;;;;;5058485;28;20401;-63
2021/05/03 03:47:51;;;;;;;0.40;0.40;;;6.60;99.90;;;;;;5050759;28;20264;-64
2021/05/03 03:50:18;;;;;;;1.02;1.02;;;6.60;99.90;;;;;;5057017;28;20211;-63
2021/05/03 03:52:45;;;;;;;0.65;0.65;;;6.60;99.90;;;;;;5059188;28;20301;-64
2021/05/03 03:55:12;;;;;;;0.80;0.73;;;6.70;99.90;;;;;;5056778;28;20225;-64
2021/05/03 03:57:39;;;;;;;0.50;0.50;;;6.70;99.90;;;;;;5050127;28;20465;-63
2021/05/03 04:00:06;;;;;;;0.30;0.30;;;6.70;99.90;;;;;;5057159;28;20210;-64
2021/05/03 04:02:34;;;;;;;0.30;0.30;;;6.70;99.90;;;;;;5058560;28;20203;-62
2021/05/03 04:07:36;;;;;;;0.30;0.30;;;6.60;99.90;;;;;;5058405;28;20207;-64
2021/05/03 04:10:32;;;;;;;0.40;0.40;;;6.70;99.90;;;;;;5056294;28;20207;-64
2021/05/03 04:21:22;;;;;;;0.40;0.40;;;6.90;99.90;;;;;;5041183;28;20365;-63
2021/05/03 04:26:17;;;;;;;0.50;0.50;;;6.90;99.90;;;;;;5040944;28;20461;-64
2021/05/03 04:28:45;;;;;;;1.10;0.77;;;6.80;99.90;;;;;;5043501;28;20219;-63
2021/05/03 04:31:12;;;;;;;0.40;0.40;;;6.80;99.90;;;;;;5055331;28;20206;-63
2021/05/03 04:33:39;;;;;;;0.30;0.30;;;6.90;99.90;;;;;;5044783;28;20547;-63
2021/05/03 04:36:07;;;;;;;0.35;0.35;;;6.90;99.90;;;;;;5056628;28;20556;-62
2021/05/03 04:38:34;;;;;;;0.60;0.50;;;6.80;99.90;;;;;;5057742;28;20230;-63
2021/05/03 04:41:01;;;;;;;0.52;0.52;;;6.80;99.90;;;;;;5044263;28;20219;-62
2021/05/03 04:43:28;;;;;;;0.30;0.30;;;6.70;99.90;;;;;;5039488;28;20217;-63
2021/05/03 04:45:55;;;;;;;0.43;0.43;;;6.80;99.90;;;;;;5051442;28;20207;-64
2021/05/03 04:48:22;;;;;;;0.95;0.85;;;6.80;99.90;;;;;;5045234;28;20207;-64
2021/05/03 04:50:49;;;;;;;0.30;0.30;;;6.80;99.90;;;;;;5058605;28;20214;-64
2021/05/03 04:53:15;;;;;;;0.60;0.60;;;6.70;99.90;;;;;;5057263;28;20239;-64
2021/05/03 04:55:42;;;;;;;0.80;0.80;;;6.80;99.90;;;;;;5057160;28;20214;-64
2021/05/03 04:58:08;;;;;;;0.90;0.68;;;6.90;99.90;;;;;;5057558;28;20290;-64
2021/05/03 05:00:35;;;;;;;1.00;0.60;;;6.90;99.90;;;;;;5057071;28;20212;-65
2021/05/03 05:03:02;;;;;;;0.70;0.70;;;6.80;99.90;;;;;;5043691;28;20208;-65
2021/05/03 05:05:30;;;;;;;0.40;0.40;;;6.80;99.90;;;;;;5051755;28;20200;-65
2021/05/03 05:07:56;;;;;;;0.50;0.40;;;6.90;99.90;;;;;;5050930;28;20215;-64
2021/05/03 05:10:23;;;;;;;0.50;0.50;;;6.90;99.90;;;;;;5051193;28;20220;-64
2021/05/03 05:12:50;;;;;;;0.77;0.77;;;6.90;99.90;;;;;;5057687;28;20215;-63
2021/05/03 05:15:17;;;;;;;0.82;0.77;;;6.90;99.90;;;;;;5054100;28;20295;-64
2021/05/03 05:17:46;;;;;;;1.17;1.17;;;7.00;99.90;;;;;;5037768;28;20417;-63
2021/05/03 05:20:12;;;;;;;0.30;0.30;;;6.90;99.90;;;;;;5040646;28;20203;-63
2021/05/03 05:22:39;;;;;;;0.30;0.30;;;7.00;99.90;;;;;;5049171;28;20211;-64
2021/05/03 05:25:07;;;;;;;0.43;0.43;;;7.20;99.90;;;;;;5056316;28;20532;-64
2021/05/03 05:27:34;;;;;;;0.57;0.57;;;7.50;99.90;;;;;;5056559;28;20204;-64
2021/05/03 05:30:00;;;;;;;0.40;0.40;;;7.60;99.90;;;;;;5056133;28;20215;-65
2021/05/03 05:32:27;;;;;;;0.68;0.68;;;7.70;99.90;;;;;;5045738;28;20207;-65
2021/05/03 05:34:54;;;;;;;0.73;0.40;;;7.80;99.90;;;;;;5056729;28;20208;-63
2021/05/03 05:37:20;;;;;;;0.30;0.30;;;7.80;99.90;;;;;;5053948;28;20218;-65
2021/05/03 05:39:47;;;;;;;0.68;0.55;;;7.90;99.90;;;;;;5071997;28;20238;-65
2021/05/03 05:42:14;;;;;;;1.33;1.33;;;8.20;99.90;;;;;;5061184;28;20211;-64
2021/05/03 05:44:40;;;;;;;1.25;0.95;;;8.40;99.90;;;;;;5065447;28;20299;-64
2021/05/03 05:47:07;;;;;;;0.75;0.75;;;8.50;99.90;;;;;;5059614;28;20231;-64
2021/05/03 05:49:35;;;;;;;0.50;0.50;;;8.60;99.90;;;;;;5059705;28;20215;-65
2021/05/03 05:52:02;;;;;;;0.73;0.73;;;8.70;99.90;;;;;;5068292;28;20528;-65
2021/05/03 05:54:28;;;;;;;1.20;1.15;;;9.00;99.90;;;;;;5060033;28;20246;-64
2021/05/03 05:56:55;;;;;;;0.95;0.85;;;8.80;99.90;;;;;;5060357;28;20214;-64
2021/05/03 05:59:24;;;;;;;1.90;1.48;;;8.80;99.90;;;;;;5059226;28;20227;-65
2021/05/03 06:01:51;;;;;;;0.68;0.68;;;8.40;99.90;;;;;;5058404;28;20213;-65
2021/05/03 06:04:18;;;;;;;0.50;0.50;;;8.20;99.90;;;;;;5056497;28;20211;-65
2021/05/03 06:06:44;;;;;;;0.45;0.45;;;7.90;99.90;;;;;;5059941;28;20211;-65
2021/05/03 06:09:11;;;;;;;0.40;0.40;;;7.90;99.90;;;;;;5064941;28;20257;-65
2021/05/03 06:11:37;;;;;;;1.60;1.50;;;7.90;99.90;;;;;;5059273;28;20377;-65
2021/05/03 06:14:04;;;;;;;0.55;0.55;;;7.90;99.90;;;;;;5068073;28;20253;-66
2021/05/03 06:16:31;;;;;;;0.45;0.40;;;8.10;99.90;;;;;;5046336;28;20208;-67
2021/05/03 06:18:58;;;;;;;0.52;0.52;;;8.30;99.90;;;;;;5059692;28;20553;-64
2021/05/03 06:21:25;;;;;;;0.50;0.50;;;8.50;99.90;;;;;;5062469;28;20210;-63
2021/05/03 06:23:52;;;;;;;0.55;0.55;;;8.60;99.90;;;;;;5064926;28;20275;-63
2021/05/03 06:26:18;;;;;;;0.40;0.40;;;8.90;99.90;;;;;;5059871;28;20229;-64
2021/05/03 06:28:48;;;;;;;0.50;0.50;;;8.90;99.90;;;;;;5065457;28;20275;-64
2021/05/03 06:31:14;;;;;;;0.68;0.63;;;9.20;99.90;;;;;;5058330;28;20215;-64
2021/05/03 06:33:41;;;;;;;0.80;0.75;;;9.30;99.90;;;;;;5058902;28;20400;-64
2021/05/03 06:36:07;;;;;;;0.40;0.40;;;9.30;99.90;;;;;;5049525;28;20216;-65
2021/05/03 06:38:34;;;;;;;0.63;0.63;;;9.30;99.90;;;;;;5058003;28;20232;-64
2021/05/03 06:41:01;;;;;;;0.40;0.40;;;9.50;99.90;;;;;;5058842;28;20221;-64
2021/05/03 06:43:27;;;;;;;1.48;1.20;;;9.40;99.90;;;;;;5059726;28;20218;-64
2021/05/03 06:45:56;;;;;;;1.02;0.93;;;9.40;99.90;;;;;;5059428;28;20227;-65
2021/05/03 06:48:24;;;;;;;0.77;0.77;;;9.80;99.90;;;;;;5059378;28;20228;-66
2021/05/03 06:50:51;;;;;;;0.40;0.40;;;10.90;97.30;;;;;;5058505;28;20217;-67
2021/05/03 06:53:17;;;;;;;0.60;0.60;;;11.40;95.70;;;;;;5058837;28;20253;-67
2021/05/03 06:55:46;;;;;;;0.60;0.60;;;11.20;96.70;;;;;;5057940;28;20701;-64
2021/05/03 06:58:13;;;;;;;0.60;0.60;;;11.20;95.90;;;;;;5057799;28;20222;-65
2021/05/03 07:00:41;;;;;;;0.50;0.50;;;11.70;94.80;;;;;;5064319;28;20210;-64
2021/05/03 07:03:09;;;;;;;0.73;0.73;;;12.70;92.10;;;;;;5052309;28;20210;-64
2021/05/03 07:05:36;;;;;;;0.85;0.82;;;12.50;93.40;;;;;;5058191;28;20453;-65
2021/05/03 07:08:04;;;;;;;0.70;0.70;;;12.30;93.70;;;;;;5058400;28;20226;-64
2021/05/03 07:10:33;;;;;;;1.30;1.30;;;12.50;92.20;;;;;;5046452;28;20250;-65
2021/05/03 07:13:01;;;;;;;0.90;0.90;;;14.00;90.50;;;;;;5058637;28;20216;-65
2021/05/03 07:15:28;;;;;;;1.08;1.08;;;13.30;89.80;;;;;;5052006;28;20513;-65
2021/05/03 07:17:55;;;;;;;0.82;0.82;;;12.30;92.60;;;;;;5052678;28;20411;-65
2021/05/03 07:20:22;;;;;;;1.08;1.08;;;12.50;92.50;;;;;;5052984;28;20270;-65
2021/05/03 07:22:49;;;;;;;1.40;1.40;;;13.70;89.60;;;;;;5050259;28;20208;-64
2021/05/03 07:25:16;;;;;;;1.52;1.52;;;14.30;85.40;;;;;;5053999;28;20209;-64
2021/05/03 07:27:43;;;;;;;1.75;1.73;;;15.50;79.20;;;;;;5049662;28;20204;-64
2021/05/03 07:30:12;;;;;;;2.40;2.30;;;16.00;79.40;;;;;;5050127;28;20300;-66
2021/05/03 07:32:39;;;;;;;2.50;2.40;;;17.80;70.60;;;;;;5050136;28;20244;-65
2021/05/03 07:35:08;;;;;;;2.20;2.20;;;18.50;63.40;;;;;;5057834;28;20749;-66
2021/05/03 07:37:35;;;;;;;2.50;2.50;;;19.00;60.30;;;;;;5056437;28;20449;-65
2021/05/03 07:40:06;;;;;;;2.70;2.60;;;18.40;58.50;;;;;;5064645;28;20450;-65
2021/05/03 07:42:33;;;;;;;2.83;2.73;;;18.70;57.30;;;;;;5073124;28;20439;-65
2021/05/03 07:45:09;;;;;;;2.53;2.50;;;16.90;59.60;;;;;;5052992;28;20443;-66
2021/05/03 07:47:36;;;;;;;2.70;2.60;;;15.80;68.50;;;;;;5062315;28;20724;-66
2021/05/03 07:50:04;;;;;;;2.53;2.50;;;17.00;62.40;;;;;;5056433;28;20444;-65
2021/05/03 07:52:31;;;;;;;2.80;2.70;;;17.20;62.50;;;;;;5055911;28;20472;-67
2021/05/03 07:54:59;;;;;;;3.20;3.10;;;18.50;57.70;;;;;;5061333;28;20609;-65
2021/05/03 07:57:27;;;;;;;2.80;2.70;;;18.80;54.30;;;;;;5052899;28;20795;-67
2021/05/03 07:59:54;;;;;;;2.80;2.70;;;19.20;53.10;;;;;;5050812;28;20461;-67
2021/05/03 08:02:21;;;;;;;3.20;3.10;;;18.70;55.50;;;;;;5057143;28;20436;-67
2021/05/03 08:04:51;;;;;;;2.80;2.70;;;18.90;56.00;;;;;;5057646;28;20454;-66
2021/05/03 08:07:18;;;;;;;3.07;2.97;;;19.60;52.40;;;;;;5044311;28;20447;-65
2021/05/03 08:09:45;;;;;;;3.13;3.03;;;18.80;54.00;;;;;;5057049;28;20637;-67
2021/05/03 08:12:12;;;;;;;2.97;2.87;;;18.70;55.60;;;;;;5060852;28;20517;-66
2021/05/03 08:14:40;;;;;;;3.87;3.67;;;18.80;52.10;;;;;;5066828;28;20532;-65
2021/05/03 08:17:11;;;;;;;3.40;3.30;;;17.30;55.50;;;;;;5056969;28;20448;-66
2021/05/03 08:19:38;;;;;;;3.10;3.00;;;17.70;55.70;;;;;;5056784;28;20453;-66
2021/05/03 08:22:04;;;;;;;3.73;3.53;;;18.20;54.50;;;;;;5057231;28;20657;-66
2021/05/03 08:24:32;;;;;;;3.30;3.20;;;18.90;53.90;;;;;;5047520;28;20644;-67
2021/05/03 08:27:00;;;;;;;3.90;3.73;;;20.40;51.10;;;;;;5056147;28;20499;-67
2021/05/03 08:29:27;;;;;;;3.70;3.60;;;21.80;47.20;;;;;;5066460;28;20429;-66
2021/05/03 08:31:54;;;;;;;4.90;4.70;;;22.10;43.20;;;;;;5056174;28;20444;-65
2021/05/03 08:34:21;;;;;;;3.53;3.43;;;20.20;45.10;;;;;;5046788;28;20811;-66
2021/05/03 08:36:50;;;;;;;3.60;3.50;;;17.90;50.20;;;;;;5057276;28;20445;-66
2021/05/03 08:39:16;;;;;;;3.10;3.00;;;16.80;55.20;;;;;;5055770;28;20541;-68
2021/05/03 08:41:43;;;;;;;3.60;3.50;;;17.80;54.00;;;;;;5047852;28;20456;-66
2021/05/03 08:44:09;;;;;;;3.50;3.40;;;18.80;48.60;;;;;;5057174;28;20785;-68
2021/05/03 08:46:41;;;;;;;3.37;3.27;;;17.80;50.80;;;;;;5050833;28;20440;-68
2021/05/03 08:49:26;;;;;;;3.30;3.20;;;17.20;52.40;;;;;;5049049;28;20773;-66
2021/05/03 08:54:41;;;;;;;3.00;2.90;;;19.10;48.60;;;;;;5054711;28;20438;-67
2021/05/03 08:57:11;;;;;;;3.37;3.27;;;17.60;49.90;;;;;;5054612;28;20543;-67
2021/05/03 08:59:39;;;;;;;3.00;2.90;;;15.70;55.50;;;;;;5042850;28;20695;-67
2021/05/03 09:02:09;;;;;;;3.60;3.37;;;17.00;55.00;;;;;;5044066;28;20754;-66
2021/05/03 09:04:36;;;;;;;3.00;2.90;;;17.70;50.20;;;;;;5057262;28;20450;-67
2021/05/03 09:07:16;;;;;;;2.78;2.67;;;17.30;51.80;;;;;;5048594;28;20652;-67
2021/05/03 09:09:54;;;;;;;3.00;2.90;;;15.30;56.90;;;;;;5040841;28;20216;-67
2021/05/03 09:12:25;;;;;;;2.88;2.78;;;14.20;58.90;;;;;;5048845;28;20225;-66
2021/05/03 09:14:54;;;;;;;2.75;2.72;;;13.00;61.40;;;;;;5041327;28;20279;-67
2021/05/03 09:17:44;;;;;;;3.28;3.17;;;12.50;67.10;;;;;;5051703;28;20272;-66
2021/05/03 09:20:17;;;;;;;2.70;2.70;;;12.50;68.70;;;;;;5047167;28;20225;-66
2021/05/03 09:22:52;;;;;;;3.30;3.20;;;13.40;69.10;;;;;;5046584;28;20207;-66
2021/05/03 09:25:34;;;;;;;2.70;2.65;;;13.80;65.00;;;;;;5047955;28;20211;-66
2021/05/03 09:28:30;;;;;;;2.50;2.50;;;13.60;68.70;;;;;;5044581;28;20211;-66
2021/05/03 09:30:56;;;;;;;2.85;2.75;;;12.50;67.00;;;;;;5049099;28;20204;-66
2021/05/03 09:33:35;;;;;;;2.50;2.50;;;12.20;71.90;;;;;;5041182;28;20219;-64
2021/05/03 09:36:09;;;;;;;2.20;2.20;;;12.30;75.20;;;;;;5046188;28;20372;-66
2021/05/03 09:38:45;;;;;;;2.20;2.20;;;12.60;79.00;;;;;;5041339;28;20232;-66
2021/05/03 09:41:21;;;;;;;2.33;2.33;;;12.90;79.40;;;;;;5042331;28;20278;-66
2021/05/03 09:44:05;;;;;;;2.22;2.22;;;12.90;78.60;;;;;;5041731;28;20207;-65
2021/05/03 09:46:35;;;;;;;2.20;2.20;;;12.90;80.30;;;;;;5050384;28;20219;-66
2021/05/03 09:49:18;;;;;;;2.20;2.20;;;12.50;79.70;;;;;;5042435;28;20514;-65
2021/05/03 09:51:44;;;;;;;2.78;2.67;;;12.30;81.10;;;;;;5055121;28;20340;-65
2021/05/03 09:54:26;;;;;;;2.70;2.60;;;12.30;80.40;;;;;;5049572;28;20251;-66
2021/05/03 09:57:04;;;;;;;2.22;2.22;;;12.00;81.90;;;;;;5050999;28;20217;-65
2021/05/03 09:59:42;;;;;;;2.00;2.00;;;12.00;83.60;;;;;;5041461;28;20614;-65
2021/05/03 10:02:09;;;;;;;2.20;2.20;;;11.90;83.50;;;;;;5049465;28;20205;-66
2021/05/03 10:04:44;;;;;;;2.35;2.33;;;11.70;82.40;;;;;;5046004;28;20723;-65
2021/05/03 10:07:11;;;;;;;2.40;2.28;;;11.50;82.10;;;;;;5044938;28;20213;-65
2021/05/03 10:09:38;;;;;;;2.00;2.00;;;11.50;83.00;;;;;;5049611;28;20463;-65
2021/05/03 10:12:05;;;;;;;2.05;2.05;;;11.80;83.60;;;;;;5042418;28;20214;-66
2021/05/03 10:14:32;;;;;;;2.10;2.10;;;12.00;82.20;;;;;;5044142;28;20211;-65
2021/05/03 10:17:01;;;;;;;2.03;2.03;;;11.80;82.50;;;;;;5045995;28;20291;-65
2021/05/03 10:19:29;;;;;;;2.40;2.40;;;11.40;86.40;;;;;;5049541;28;20335;-65
2021/05/03 10:21:56;;;;;;;2.05;2.05;;;11.10;85.30;;;;;;5059777;28;20202;-65
2021/05/03 10:24:23;;;;;;;1.80;1.80;;;10.90;85.90;;;;;;5063414;28;20206;-65
2021/05/03 10:26:52;;;;;;;4.53;4.32;;;10.90;87.70;;;;;;5060543;28;20216;-65
2021/05/03 10:29:26;;;;;;;2.00;1.80;;;11.20;90.60;;;;;;5056571;28;20275;-64
2021/05/03 10:32:04;;;;;;;1.80;1.80;;;11.30;90.20;;;;;;5056412;28;20209;-64
2021/05/03 10:34:40;;;;;;;1.60;1.60;;;11.50;87.40;;;;;;5048311;28;20281;-65
2021/05/03 10:37:28;;;;;;;1.90;1.90;;;11.70;86.20;;;;;;5042187;28;20215;-65
2021/05/03 10:39:56;;;;;;;2.60;2.50;;;11.90;82.30;;;;;;5041449;28;20239;-65
2021/05/03 10:42:23;;;;;;;2.40;2.40;;;12.40;80.00;;;;;;5039912;28;20527;-65
2021/05/03 10:45:09;;;;;;;2.20;2.20;;;13.10;78.30;;;;;;5042219;28;20208;-64
2021/05/03 10:50:04;;;;;;;2.50;2.50;;;14.00;72.50;;;;;;5044749;28;20257;-64
2021/05/03 10:52:37;;;;;;;2.60;2.50;;;14.40;74.30;;;;;;5042752;28;20244;-66
2021/05/03 10:55:04;;;;;;;2.28;2.28;;;14.60;71.00;;;;;;5043701;28;20208;-66
2021/05/03 10:57:35;;;;;;;2.90;2.80;;;14.70;71.00;;;;;;5044731;28;20216;-66
2021/05/03 11:00:08;;;;;;;2.80;2.70;;;14.30;71.70;;;;;;5044688;28;20596;-65
2021/05/03 11:02:35;;;;;;;2.80;2.70;;;13.50;76.40;;;;;;5063462;28;20213;-66
2021/05/03 11:05:11;;;;;;;3.08;2.97;;;12.80;77.50;;;;;;5061602;28;20220;-65
2021/05/03 11:08:05;;;;;;;2.85;2.75;;;12.10;75.90;;;;;;5066794;28;20210;-65
2021/05/03 11:10:59;;;;;;;3.38;3.28;;;11.90;78.20;;;;;;5048178;28;20207;-65
2021/05/03 11:13:38;;;;;;;6.07;3.58;;;12.10;78.70;;;;;;5069869;28;20211;-65
2021/05/03 11:16:27;;;;;;;3.38;3.17;;;12.50;77.50;;;;;;5049515;28;20206;-66
2021/05/03 11:19:00;;;;;;;2.40;2.40;;;12.80;78.00;;;;;;5057262;28;20266;-65
2021/05/03 11:21:43;;;;;;;2.60;2.60;;;12.90;74.80;;;;;;5073878;28;20218;-65
2021/05/03 11:24:24;;;;;;;3.72;3.63;;;13.30;74.60;;;;;;5054868;28;20252;-65
2021/05/03 11:30:04;;;;;;;2.55;2.55;;;13.70;73.40;;;;;;5015535;28;20235;-66
2021/05/03 11:32:35;;;;;;;2.50;2.50;;;13.50;74.20;;;;;;5048977;28;20208;-65
2021/05/03 11:38:15;;;;;;;2.70;2.67;;;12.80;77.50;;;;;;5056350;28;20279;-65
2021/05/03 11:46:32;;;;;;;2.70;2.60;;;11.70;79.80;;;;;;5040280;28;20207;-65
2021/05/03 11:49:20;;;;;;;2.60;2.60;;;11.80;81.70;;;;;;5054272;28;20237;-65
2021/05/03 11:51:57;;;;;;;2.30;2.30;;;11.80;79.20;;;;;;5059348;28;20210;-65
2021/05/03 11:54:38;;;;;;;2.40;2.40;;;12.00;79.80;;;;;;5056010;28;20332;-66
2021/05/03 11:57:07;;;;;;;2.60;2.60;;;12.00;79.40;;;;;;5059352;28;20206;-66
2021/05/03 11:59:35;;;;;;;2.55;2.55;;;12.10;80.50;;;;;;5054259;28;20761;-65
2021/05/03 12:02:03;;;;;;;2.40;2.40;;;12.40;80.10;;;;;;5058906;28;20522;-65
2021/05/03 12:04:40;;;;;;;2.22;2.22;;;12.50;79.00;;;;;;5062872;28;20237;-66
2021/05/03 12:07:11;;;;;;;2.50;2.50;;;12.30;80.00;;;;;;5054832;28;20210;-64
2021/05/03 12:09:38;;;;;;;2.95;2.83;;;12.40;79.90;;;;;;5056101;28;20265;-65
2021/05/03 12:12:05;;;;;;;2.10;2.10;;;12.40;78.90;;;;;;5055465;28;20461;-65
2021/05/03 12:14:38;;;;;;;2.50;2.50;;;12.20;82.00;;;;;;5058785;28;20208;-64
2021/05/03 12:17:19;;;;;;;2.20;2.20;;;12.50;80.80;;;;;;5056434;28;20245;-67
2021/05/03 12:19:48;;;;;;;2.30;2.30;;;12.40;79.90;;;;;;5051838;28;20238;-65
2021/05/03 12:22:16;;;;;;;2.15;2.15;;;12.40;78.20;;;;;;5054766;28;20214;-65
2021/05/03 12:24:45;;;;;;;2.50;2.50;;;12.50;79.60;;;;;;5067059;28;20212;-65
2021/05/03 12:27:12;;;;;;;2.50;2.50;;;12.70;76.00;;;;;;5059925;28;20385;-64
2021/05/03 12:29:43;;;;;;;2.35;2.35;;;13.00;75.80;;;;;;5047468;28;20218;-66
2021/05/03 12:32:12;;;;;;;2.50;2.50;;;13.20;73.60;;;;;;5056818;28;20273;-65
2021/05/03 12:34:42;;;;;;;2.28;2.28;;;13.10;76.70;;;;;;5059795;28;20209;-64
2021/05/03 12:37:09;;;;;;;2.10;2.10;;;12.80;76.90;;;;;;5065008;28;20279;-65
2021/05/03 12:40:05;;;;;;;2.30;2.30;;;12.50;80.90;;;;;;5065040;28;20290;-66
2021/05/03 12:42:33;;;;;;;2.30;2.30;;;12.50;79.10;;;;;;5047069;28;20202;-67
2021/05/03 12:56:43;;;;;;;2.88;2.78;;;12.50;77.50;;;;;;5060940;28;20286;-65
2021/05/03 12:59:25;;;;;;;2.40;2.40;;;12.50;78.30;;;;;;5057597;28;20442;-65
2021/05/03 13:02:03;;;;;;;2.20;2.20;;;12.40;78.60;;;;;;5059224;28;20212;-66
2021/05/03 13:07:25;;;;;;;2.65;2.55;;;12.80;79.20;;;;;;5053307;28;20211;-65
2021/05/03 13:10:42;;;;;;;2.75;2.50;;;13.10;78.40;;;;;;5057236;28;20234;-65
2021/05/03 13:30:23;;;;;;;2.40;2.40;;;13.00;73.00;;;;;;5055741;28;20381;-65
2021/05/03 13:32:50;;;;;;;2.58;2.58;;;12.90;72.10;;;;;;5048798;28;20207;-65
2021/05/03 13:35:16;;;;;;;2.40;2.40;;;13.10;75.50;;;;;;5056781;28;20211;-65
2021/05/03 13:37:44;;;;;;;2.30;2.30;;;13.00;74.80;;;;;;5062239;28;20658;-66
2021/05/03 13:40:12;;;;;;;2.20;2.20;;;12.90;75.50;;;;;;5048490;28;20231;-66
2021/05/03 13:42:43;;;;;;;2.40;2.40;;;13.00;76.80;;;;;;5043508;28;20342;-65
2021/05/03 13:45:10;;;;;;;2.40;2.40;;;13.00;78.80;;;;;;5063797;28;20239;-64
2021/05/03 13:47:37;;;;;;;2.60;2.50;;;12.80;79.80;;;;;;5061397;28;20545;-65
2021/05/03 13:50:05;;;;;;;2.33;2.22;;;12.70;79.60;;;;;;5050532;28;20214;-66
2021/05/03 13:52:32;;;;;;;2.20;2.20;;;12.60;81.00;;;;;;5058044;28;20399;-66
2021/05/03 13:54:58;;;;;;;2.28;2.28;;;12.70;76.30;;;;;;5062708;28;20269;-67
2021/05/03 13:57:25;;;;;;;2.10;2.00;;;12.70;78.70;;;;;;5045992;28;20204;-66
2021/05/03 13:59:52;;;;;;;2.00;2.00;;;12.80;78.90;;;;;;5046269;28;20304;-67
2021/05/03 14:02:20;;;;;;;2.30;2.30;;;13.10;78.80;;;;;;5042238;28;20314;-67
2021/05/03 14:04:47;;;;;;;2.80;2.70;;;13.60;78.00;;;;;;5056679;28;20223;-64
2021/05/03 14:07:14;;;;;;;2.20;2.20;;;13.70;74.30;;;;;;5050519;28;20239;-68